Search for airport 
image banner adimage banner adimage banner ad
image banner ad

05IA - Spotts Field

Located in Nora Springs, United States

ICAO - 05IA, IATA -

Data provided by Airmate  

General information

Coordinates: N43°8'15" W93°4'6"
Elevation is 1155 feet MSL.
Magnetic variation is 03° East
View others Airports in Iowa

Operational data

Special qualification required
Current time UTC:
Current local time:
Weather at : KMCW - Mason City Muni ( 21 km )
METAR: KMCW 181653Z AUTO 36005KT 10SM CLR 29/12 A2987 RMK AO2 SLP098 T02940117
TAF: KMCW 181130Z 1812/1912 36004KT P6SM FEW250 FM182100 25005KT P6SM FEW250
View NOTAMs / SUP AIP / TFR affecting this airport [VIEW]
Communications frequencies: [VIEW]

Runways:

RWY identifierQFULength (ft)Width (ft)SurfaceLDA (ft)
09245065GRASS
27245065GRASS

Airport contact information

Address: Nora Springs United States

Satellite view of 05IA